createdAt,value
2023-05-05T05:03:22.808Z,22.98
2023-05-05T05:04:23.612Z,23.25
2023-05-05T05:05:23.672Z,23.31
2023-05-05T05:06:23.787Z,23.33
2023-05-05T05:07:22.717Z,23.36
2023-05-05T05:08:22.803Z,23.36
2023-05-05T05:09:23.749Z,23.38
2023-05-05T05:10:22.967Z,23.40
2023-05-05T05:11:23.484Z,23.41
2023-05-05T05:12:23.004Z,23.42
2023-05-05T05:13:24.203Z,23.43
2023-05-05T05:14:23.274Z,23.50
2023-05-05T05:15:24.012Z,23.46
2023-05-05T05:16:24.255Z,23.44
2023-05-05T05:17:23.101Z,23.41
2023-05-05T05:18:23.216Z,23.37
2023-05-05T05:19:23.248Z,23.37
2023-05-05T05:20:23.243Z,23.37
2023-05-05T05:21:23.310Z,23.37
2023-05-05T05:22:23.351Z,23.38
2023-05-05T05:23:23.334Z,23.40
2023-05-05T05:24:24.480Z,23.44
2023-05-05T05:25:24.170Z,23.47
2023-05-05T05:27:42.592Z,23.52
2023-05-05T05:28:44.203Z,23.46
2023-05-05T05:29:43.548Z,23.48
2023-05-05T05:30:43.527Z,23.48
2023-05-05T05:31:42.711Z,23.51
2023-05-05T05:32:42.671Z,23.57
2023-05-05T05:33:42.568Z,23.66
2023-05-05T05:34:42.574Z,23.74
2023-05-05T05:35:42.586Z,23.80
2023-05-05T05:36:42.551Z,23.81
2023-05-05T05:37:42.550Z,23.86
2023-05-05T05:38:43.502Z,23.90
2023-05-05T05:39:43.870Z,23.88
2023-05-05T05:40:43.509Z,23.86
2023-05-05T05:41:42.446Z,23.80
2023-05-05T05:42:42.496Z,23.78
2023-05-05T05:43:42.418Z,23.81
2023-05-05T05:44:42.493Z,23.91
2023-05-05T05:45:42.515Z,23.93
2023-05-05T05:46:42.637Z,23.87
2023-05-05T05:47:42.567Z,23.94
2023-05-05T05:48:42.580Z,23.90
2023-05-05T05:49:42.622Z,23.93
2023-05-05T05:50:42.638Z,24.01
2023-05-05T05:51:43.671Z,24.01
2023-05-05T05:52:43.696Z,23.97
2023-05-05T05:53:42.774Z,23.84
2023-05-05T05:54:42.824Z,23.77
2023-05-05T05:55:42.836Z,23.62
2023-05-05T05:56:42.946Z,23.43
2023-05-05T05:57:43.944Z,23.28
2023-05-05T05:58:42.941Z,23.27
2023-05-05T05:59:42.960Z,23.17
2023-05-05T06:00:42.998Z,23.10
2023-05-05T06:01:43.264Z,23.06
2023-05-05T06:02:44.270Z,23.12
2023-05-05T06:03:43.333Z,23.28
2023-05-05T06:04:43.346Z,23.24
2023-05-05T06:05:44.344Z,23.19
2023-05-05T06:06:44.431Z,23.18
2023-05-05T06:07:43.413Z,23.30
2023-05-05T06:08:43.408Z,23.51
2023-05-05T06:09:44.470Z,23.61
2023-05-05T06:10:43.553Z,23.67
2023-05-05T06:11:43.615Z,23.73
2023-05-05T06:12:44.618Z,23.80
2023-05-05T06:13:43.612Z,23.86
2023-05-05T06:14:43.689Z,23.80
2023-05-05T06:15:43.808Z,23.91
2023-05-05T06:16:43.638Z,23.85
2023-05-05T06:17:44.674Z,23.91
2023-05-05T06:18:43.705Z,24.04
2023-05-05T06:19:44.729Z,24.13
2023-05-05T06:20:43.723Z,24.21
2023-05-05T06:21:43.760Z,24.25
2023-05-05T06:22:43.820Z,24.25
2023-05-05T06:23:43.884Z,24.25
2023-05-05T06:24:43.925Z,24.25
2023-05-05T06:25:44.048Z,24.31
2023-05-05T06:26:44.132Z,24.41
2023-05-05T06:27:44.120Z,24.38
2023-05-05T06:28:45.143Z,24.51
2023-05-05T06:29:44.099Z,24.55
2023-05-05T06:30:45.223Z,24.58
2023-05-05T06:31:44.197Z,24.58
2023-05-05T06:32:45.335Z,24.53
2023-05-05T06:33:44.255Z,24.37
2023-05-05T06:34:45.386Z,24.17
2023-05-05T06:35:45.347Z,24.10
2023-05-05T06:36:44.352Z,24.03
2023-05-05T06:37:45.355Z,23.97
2023-05-05T06:38:45.344Z,23.96
2023-05-05T06:39:44.417Z,24.06
2023-05-05T06:40:45.443Z,23.90
2023-05-05T06:41:44.466Z,23.90
2023-05-05T06:42:44.498Z,23.72
2023-05-05T06:43:44.490Z,23.54
2023-05-05T06:44:44.475Z,23.48
2023-05-05T06:45:45.535Z,23.49
2023-05-05T06:46:45.699Z,23.68
2023-05-05T06:47:44.668Z,23.83
2023-05-05T06:48:44.623Z,24.06
2023-05-05T06:49:44.616Z,24.26
2023-05-05T06:50:45.713Z,24.50
2023-05-05T06:51:44.704Z,24.49
2023-05-05T06:52:44.726Z,24.48
2023-05-05T06:53:44.859Z,24.48
2023-05-05T06:54:45.764Z,24.51
2023-05-05T06:55:45.843Z,24.50
2023-05-05T06:56:46.321Z,24.60
2023-05-05T06:57:45.040Z,24.50
2023-05-05T06:58:46.011Z,24.36
2023-05-05T06:59:45.096Z,24.27
2023-05-05T07:00:45.143Z,24.22
2023-05-05T07:01:45.029Z,24.19
2023-05-05T07:02:46.161Z,24.16
2023-05-05T07:03:45.097Z,24.12
2023-05-05T07:04:45.014Z,24.13
2023-05-05T07:05:46.051Z,24.14
2023-05-05T07:06:45.043Z,24.15
2023-05-05T07:07:45.092Z,24.17
2023-05-05T07:08:45.080Z,24.18
2023-05-05T07:09:46.313Z,24.23
2023-05-05T07:10:45.196Z,24.25
2023-05-05T07:11:46.248Z,24.26
2023-05-05T07:12:45.434Z,24.28
2023-05-05T07:13:45.381Z,24.30
2023-05-05T07:14:45.466Z,24.32
2023-05-05T07:15:45.509Z,24.35
2023-05-05T07:16:45.641Z,24.37
2023-05-05T07:17:45.688Z,24.38
2023-05-05T07:18:45.647Z,24.40
2023-05-05T07:19:46.770Z,24.42
2023-05-05T07:20:45.740Z,24.44
2023-05-05T07:21:46.796Z,24.46
2023-05-05T07:22:46.874Z,24.48
2023-05-05T07:23:46.889Z,24.48
2023-05-05T07:24:45.941Z,24.51
2023-05-05T07:25:46.074Z,24.55
2023-05-05T07:26:47.052Z,24.57
2023-05-05T07:27:46.120Z,24.59
2023-05-05T07:28:46.173Z,24.62
2023-05-05T07:29:46.110Z,24.64
2023-05-05T07:30:46.209Z,24.65
2023-05-05T07:31:46.279Z,24.65
2023-05-05T07:32:46.417Z,24.60
2023-05-05T07:33:47.302Z,24.52
2023-05-05T07:34:46.342Z,24.47
2023-05-05T07:35:46.422Z,24.44
2023-05-05T07:36:46.493Z,24.44
2023-05-05T07:37:46.535Z,24.43
2023-05-05T07:38:47.652Z,24.44
2023-05-05T07:39:46.673Z,24.47
2023-05-05T07:40:46.717Z,24.46
2023-05-05T07:41:46.946Z,24.48
2023-05-05T07:42:46.948Z,24.60
2023-05-05T07:43:46.902Z,24.70
2023-05-05T07:44:48.166Z,24.62
2023-05-05T07:45:48.079Z,24.59
2023-05-05T07:46:47.075Z,24.60
2023-05-05T07:47:47.355Z,24.78
2023-05-05T07:48:47.181Z,24.81
2023-05-05T07:49:47.209Z,24.86
2023-05-05T07:50:48.239Z,24.84
2023-05-05T07:51:48.259Z,24.77
2023-05-05T07:52:51.865Z,24.74
2023-05-05T07:53:48.320Z,24.71
2023-05-05T07:54:47.293Z,24.71
2023-05-05T07:55:47.288Z,24.71
2023-05-05T07:56:47.353Z,24.72
2023-05-05T07:57:47.650Z,24.73
2023-05-05T07:58:47.470Z,24.73
2023-05-05T07:59:47.405Z,24.75
2023-05-05T08:00:47.386Z,24.76
2023-05-05T08:01:47.407Z,24.79
2023-05-05T08:02:47.464Z,24.83
2023-05-05T08:03:47.470Z,24.87
2023-05-05T08:04:47.429Z,24.90
2023-05-05T08:05:50.546Z,24.93
2023-05-05T08:06:48.374Z,24.94
2023-05-05T08:07:47.340Z,25.02
2023-05-05T08:08:47.328Z,25.17
2023-05-05T08:09:48.362Z,25.15
2023-05-05T08:10:48.304Z,25.18
2023-05-05T08:11:48.320Z,25.13
2023-05-05T08:12:48.408Z,25.08
2023-05-05T08:13:47.476Z,25.08
2023-05-05T08:14:47.314Z,25.06
2023-05-05T08:15:47.321Z,25.12
2023-05-05T08:16:47.318Z,25.10
2023-05-05T08:17:48.352Z,25.09
2023-05-05T08:18:48.316Z,25.05
2023-05-05T08:19:47.299Z,25.04
2023-05-05T08:20:47.264Z,25.06
2023-05-05T08:21:47.229Z,25.09
2023-05-05T08:22:48.385Z,25.27
2023-05-05T08:23:48.278Z,25.36
2023-05-05T08:24:47.254Z,25.47
2023-05-05T08:25:48.393Z,25.56
2023-05-05T08:26:47.355Z,25.55
2023-05-05T08:27:47.560Z,25.48
2023-05-05T08:28:47.508Z,25.43
2023-05-05T08:29:48.721Z,25.39
2023-05-05T08:30:47.611Z,25.42
2023-05-05T08:31:48.746Z,25.48
2023-05-05T08:32:48.786Z,25.45
2023-05-05T08:33:47.722Z,25.41
2023-05-05T08:34:47.763Z,25.40
2023-05-05T08:35:48.877Z,25.39
2023-05-05T08:36:47.953Z,25.45
2023-05-05T08:37:47.921Z,25.55
2023-05-05T08:38:48.976Z,25.56
2023-05-05T08:39:49.010Z,25.48
2023-05-05T08:40:49.110Z,25.44
2023-05-05T08:41:49.129Z,25.59
2023-05-05T08:42:48.218Z,25.52
2023-05-05T08:43:49.367Z,25.50
2023-05-05T08:44:48.266Z,25.54
2023-05-05T08:45:49.329Z,25.50
2023-05-05T08:46:49.381Z,25.45
2023-05-05T08:47:48.429Z,25.47
2023-05-05T08:48:48.418Z,25.48
2023-05-05T08:49:48.426Z,25.50
2023-05-05T08:50:48.423Z,25.47
2023-05-05T08:51:48.480Z,25.52
2023-05-05T08:52:50.646Z,25.50
2023-05-05T08:53:48.621Z,25.46
2023-05-05T08:54:48.472Z,25.45
2023-05-05T08:55:48.437Z,25.44
2023-05-05T08:56:48.425Z,25.44
2023-05-05T08:57:48.485Z,25.45
2023-05-05T08:58:48.920Z,25.44
2023-05-05T08:59:48.495Z,25.48
2023-05-05T09:00:48.483Z,25.49
2023-05-05T09:01:48.599Z,25.51
2023-05-05T09:02:48.541Z,25.62
2023-05-05T09:03:48.412Z,25.62
2023-05-05T09:04:48.390Z,25.68
2023-05-05T09:05:48.373Z,25.63
2023-05-05T09:06:49.424Z,25.60
2023-05-05T09:07:48.380Z,25.61
2023-05-05T09:08:48.408Z,25.68
2023-05-05T09:09:48.345Z,25.69
2023-05-05T09:10:49.422Z,25.70
2023-05-05T09:11:48.413Z,25.78
2023-05-05T09:12:48.343Z,25.76
2023-05-05T09:13:48.400Z,25.84
2023-05-05T09:14:48.330Z,25.86
2023-05-05T09:15:49.411Z,25.89
2023-05-05T09:16:49.330Z,26.07
2023-05-05T09:17:48.697Z,26.05
2023-05-05T09:18:48.372Z,26.04
2023-05-05T09:19:48.311Z,25.98
2023-05-05T09:20:48.238Z,25.91
2023-05-05T09:21:48.233Z,25.86
2023-05-05T09:22:49.263Z,25.85
2023-05-05T09:23:48.348Z,26.08
2023-05-05T09:24:48.268Z,25.99
2023-05-05T09:25:49.219Z,25.93
2023-05-05T09:26:49.239Z,26.00
2023-05-05T09:27:48.198Z,26.15
2023-05-05T09:28:48.244Z,26.07
2023-05-05T09:29:48.180Z,26.11
2023-05-05T09:30:48.211Z,26.16
2023-05-05T09:31:48.211Z,26.17
2023-05-05T09:32:49.298Z,26.25
2023-05-05T09:33:49.294Z,26.27
2023-05-05T09:34:48.164Z,26.19
2023-05-05T09:35:49.254Z,26.07
2023-05-05T09:36:48.222Z,26.04
2023-05-05T09:37:48.162Z,26.04
2023-05-05T09:38:48.137Z,25.97
2023-05-05T09:39:49.107Z,25.95
2023-05-05T09:40:48.173Z,26.07
2023-05-05T09:41:48.157Z,26.09
2023-05-05T09:42:48.119Z,26.08
2023-05-05T09:43:49.150Z,26.07
2023-05-05T09:44:48.117Z,26.08
2023-05-05T09:45:48.137Z,26.13
2023-05-05T09:46:48.249Z,26.09
2023-05-05T09:47:49.338Z,26.07
2023-05-05T09:48:49.437Z,26.09
2023-05-05T09:49:48.295Z,26.17
2023-05-05T09:50:48.213Z,26.12
2023-05-05T09:51:49.120Z,26.17
2023-05-05T09:52:48.170Z,26.19
2023-05-05T09:53:49.321Z,26.23
2023-05-05T09:54:48.081Z,26.22
2023-05-05T09:55:49.060Z,26.05
2023-05-05T09:56:48.006Z,25.99
2023-05-05T09:57:48.093Z,25.99
2023-05-05T09:58:49.077Z,25.90
2023-05-05T09:59:49.006Z,25.90
2023-05-05T10:00:48.027Z,26.17
2023-05-05T10:01:48.077Z,26.04
2023-05-05T10:02:48.058Z,26.33
2023-05-05T10:03:47.957Z,26.21
2023-05-05T10:04:49.032Z,26.06
2023-05-05T10:05:48.027Z,26.06
2023-05-05T10:06:47.933Z,26.21
2023-05-05T10:07:48.047Z,26.11
2023-05-05T10:08:47.934Z,25.90
2023-05-05T10:09:47.923Z,25.88
2023-05-05T10:10:47.902Z,25.74
2023-05-05T10:11:47.970Z,25.69
2023-05-05T10:12:48.898Z,25.58
2023-05-05T10:13:48.887Z,25.55
2023-05-05T10:14:47.877Z,25.55
2023-05-05T10:15:49.008Z,25.65
2023-05-05T10:16:48.931Z,25.86
2023-05-05T10:17:57.868Z,25.90
2023-05-05T10:18:48.912Z,25.79
2023-05-05T10:19:47.906Z,25.71
2023-05-05T10:20:47.910Z,25.70
2023-05-05T10:21:48.059Z,25.65
2023-05-05T10:22:47.902Z,25.72
2023-05-05T10:23:47.859Z,25.70
2023-05-05T10:24:47.886Z,25.66
2023-05-05T10:25:47.864Z,25.85
2023-05-05T10:26:47.880Z,25.76
2023-05-05T10:27:47.869Z,25.85
2023-05-05T10:28:47.851Z,25.95
2023-05-05T10:29:48.791Z,25.94
2023-05-05T10:30:47.776Z,25.81
2023-05-05T10:31:47.824Z,25.73
2023-05-05T10:32:59.283Z,25.61
2023-05-05T10:33:48.994Z,25.62
2023-05-05T10:34:48.880Z,25.71
2023-05-05T10:35:48.879Z,25.86
2023-05-05T10:36:47.846Z,25.98
2023-05-05T10:37:47.972Z,25.90
2023-05-05T10:38:47.851Z,25.78
2023-05-05T10:39:47.909Z,25.75
2023-05-05T10:40:47.781Z,25.56
2023-05-05T10:41:47.856Z,25.80
2023-05-05T10:42:47.791Z,25.79
2023-05-05T10:43:48.859Z,25.79
2023-05-05T10:44:47.924Z,25.68
2023-05-05T10:45:47.856Z,25.66
2023-05-05T10:46:47.814Z,25.91
2023-05-05T10:47:47.832Z,25.99
2023-05-05T10:48:48.778Z,26.06
2023-05-05T10:49:47.796Z,26.12
2023-05-05T10:50:47.746Z,26.39
2023-05-05T10:51:47.709Z,26.27
2023-05-05T10:52:47.731Z,26.31
2023-05-05T10:53:47.905Z,26.40
2023-05-05T10:54:47.694Z,26.44
2023-05-05T10:55:48.705Z,26.35
2023-05-05T10:56:48.722Z,26.29
2023-05-05T10:57:47.659Z,26.30
2023-05-05T10:58:59.596Z,26.20
2023-05-05T10:59:48.752Z,26.26
2023-05-05T11:00:47.689Z,26.20
2023-05-05T11:01:47.655Z,26.16
2023-05-05T11:02:47.785Z,26.17
2023-05-05T11:03:47.732Z,26.22
2023-05-05T11:04:47.739Z,26.36
2023-05-05T11:05:47.679Z,26.48
2023-05-05T11:06:47.650Z,26.53
2023-05-05T11:07:48.722Z,26.55
2023-05-05T11:08:47.619Z,26.49
2023-05-05T11:09:48.730Z,26.35
2023-05-05T11:10:47.658Z,26.43
2023-05-05T11:11:48.596Z,26.57
2023-05-05T11:12:48.592Z,26.58
2023-05-05T11:13:47.592Z,26.50
2023-05-05T11:14:47.616Z,26.65
2023-05-05T11:15:47.625Z,26.53
2023-05-05T11:16:47.668Z,26.46
2023-05-05T11:17:47.708Z,26.53
2023-05-05T11:18:47.517Z,26.58
2023-05-05T11:19:48.750Z,26.58
2023-05-05T11:20:47.512Z,26.62
2023-05-05T11:21:48.564Z,26.66
2023-05-05T11:22:47.548Z,26.62
2023-05-05T11:23:47.512Z,26.61
2023-05-05T11:24:48.568Z,26.55
2023-05-05T11:25:48.596Z,26.59
2023-05-05T11:26:48.496Z,26.63
2023-05-05T11:27:47.460Z,26.74
2023-05-05T11:28:47.493Z,26.73
2023-05-05T11:29:50.299Z,26.71
2023-05-05T11:30:48.565Z,26.77
2023-05-05T11:31:48.548Z,26.66
2023-05-05T11:32:47.579Z,26.72
2023-05-05T11:33:47.535Z,26.75
2023-05-05T11:34:47.484Z,26.80
2023-05-05T11:35:47.488Z,26.73
2023-05-05T11:36:47.508Z,26.69
2023-05-05T11:37:48.508Z,26.73
2023-05-05T11:38:47.488Z,26.77
2023-05-05T11:39:48.930Z,26.84
2023-05-05T11:40:48.532Z,26.73
2023-05-05T11:41:48.519Z,26.64
2023-05-05T11:42:47.503Z,26.62
2023-05-05T11:43:48.508Z,26.63
2023-05-05T11:44:47.503Z,26.61
2023-05-05T11:45:47.429Z,26.61
2023-05-05T11:46:47.466Z,26.58
2023-05-05T11:47:47.490Z,26.59
2023-05-05T11:48:47.400Z,26.51
2023-05-05T11:49:47.408Z,26.61
2023-05-05T11:50:48.480Z,26.47
2023-05-05T11:51:47.384Z,26.38
2023-05-05T11:52:48.408Z,26.59
2023-05-05T11:53:47.468Z,26.56
2023-05-05T11:54:48.372Z,26.39
2023-05-05T11:55:48.340Z,26.33
2023-05-05T11:56:47.405Z,26.48
2023-05-05T11:57:47.429Z,26.50
2023-05-05T11:58:47.426Z,26.53
2023-05-05T11:59:49.418Z,26.52
2023-05-05T12:00:48.420Z,26.44
2023-05-05T12:01:47.382Z,26.35
2023-05-05T12:02:47.477Z,26.47
2023-05-05T12:03:47.543Z,26.45
2023-05-05T12:04:47.597Z,26.48
2023-05-05T12:05:47.472Z,26.50
2023-05-05T12:06:48.594Z,26.51
2023-05-05T12:07:47.572Z,26.38
2023-05-05T12:08:48.608Z,26.35
2023-05-05T12:09:47.596Z,26.32
2023-05-05T12:10:48.549Z,26.39
2023-05-05T12:11:48.619Z,26.53
2023-05-05T12:12:48.090Z,26.54
2023-05-05T12:13:47.805Z,26.57
2023-05-05T12:14:47.872Z,26.64
2023-05-05T12:15:47.868Z,26.56
2023-05-05T12:16:47.957Z,26.62
2023-05-05T12:17:47.944Z,26.57
2023-05-05T12:18:48.961Z,26.62
2023-05-05T12:19:49.015Z,26.67
2023-05-05T12:20:47.932Z,26.72
2023-05-05T12:21:47.994Z,26.63
2023-05-05T12:22:47.974Z,26.80
2023-05-05T12:23:49.028Z,26.94
2023-05-05T12:24:48.012Z,27.03
2023-05-05T12:25:48.077Z,27.11
2023-05-05T12:26:49.087Z,27.15
2023-05-05T12:27:49.124Z,27.17
2023-05-05T12:28:49.195Z,27.10
2023-05-05T12:29:49.235Z,27.08
2023-05-05T12:30:49.191Z,27.06
2023-05-05T12:31:48.136Z,27.04
2023-05-05T12:32:48.128Z,27.02
2023-05-05T12:33:48.225Z,27.24
2023-05-05T12:34:48.115Z,27.19
2023-05-05T12:35:49.209Z,27.15
2023-05-05T12:36:48.154Z,27.13
2023-05-05T12:37:49.252Z,27.14
2023-05-05T12:38:49.269Z,27.13
2023-05-05T12:39:49.453Z,27.11
2023-05-05T12:40:48.416Z,27.10
2023-05-05T12:41:48.509Z,27.10
2023-05-05T12:42:49.599Z,27.14
2023-05-05T12:43:48.533Z,27.12
2023-05-05T12:44:48.676Z,27.13
2023-05-05T12:45:48.886Z,27.12
2023-05-05T12:46:48.764Z,27.15
2023-05-05T12:47:49.809Z,27.17
2023-05-05T12:48:48.758Z,27.20
2023-05-05T12:49:48.877Z,27.18
2023-05-05T12:50:48.922Z,27.18
2023-05-05T12:51:48.928Z,27.23
2023-05-05T12:52:49.982Z,27.23
2023-05-05T12:53:50.005Z,27.24
2023-05-05T12:54:49.046Z,27.24
2023-05-05T12:55:48.998Z,27.28
2023-05-05T12:56:49.078Z,27.27
2023-05-05T12:57:50.077Z,27.27
2023-05-05T12:58:49.154Z,27.26
2023-05-05T12:59:49.102Z,27.27
2023-05-05T13:00:49.152Z,27.29
2023-05-05T13:01:49.401Z,27.30
2023-05-05T13:02:49.350Z,27.30
2023-05-05T13:03:49.188Z,27.32
2023-05-05T13:04:49.154Z,27.34
2023-05-05T13:05:50.242Z,27.34
2023-05-05T13:06:50.210Z,27.36
2023-05-05T13:07:50.175Z,27.37
2023-05-05T13:08:49.124Z,27.38
2023-05-05T13:09:50.218Z,27.42
2023-05-05T13:10:49.246Z,27.42
2023-05-05T13:11:50.185Z,27.44
2023-05-05T13:12:49.141Z,27.44
2023-05-05T13:13:49.121Z,27.43
2023-05-05T13:14:49.146Z,27.43
2023-05-05T13:15:49.187Z,27.44
2023-05-05T13:16:49.248Z,27.47
2023-05-05T13:17:49.273Z,27.47
2023-05-05T13:18:49.155Z,27.46
2023-05-05T13:19:50.150Z,27.49
2023-05-05T13:20:49.190Z,27.50
2023-05-05T13:21:50.248Z,27.52
2023-05-05T13:22:49.265Z,27.52
2023-05-05T13:23:49.315Z,27.53
2023-05-05T13:24:52.403Z,27.57
2023-05-05T13:25:50.377Z,27.58
2023-05-05T13:26:49.304Z,27.59
2023-05-05T13:27:49.297Z,27.59
2023-05-05T13:28:50.316Z,27.60
2023-05-05T13:29:49.329Z,27.61
2023-05-05T13:30:49.226Z,27.67
2023-05-05T13:31:50.285Z,27.68
2023-05-05T13:32:49.246Z,27.69
2023-05-05T13:33:50.335Z,27.67
2023-05-05T13:34:50.207Z,27.72
2023-05-05T13:35:49.309Z,27.74
2023-05-05T13:36:50.016Z,27.71
2023-05-05T13:37:49.181Z,27.69
2023-05-05T13:38:50.179Z,27.68
2023-05-05T13:39:50.148Z,27.65
2023-05-05T13:40:50.168Z,27.67
2023-05-05T13:41:50.214Z,27.70
2023-05-05T13:42:49.139Z,27.71
2023-05-05T13:43:49.194Z,27.72
2023-05-05T13:44:49.145Z,27.73
2023-05-05T13:45:50.229Z,27.74
2023-05-05T13:46:50.214Z,27.77
2023-05-05T13:47:49.148Z,27.84
2023-05-05T13:48:49.138Z,27.86
2023-05-05T13:49:49.406Z,27.83
2023-05-05T13:50:49.314Z,27.85
2023-05-05T13:51:49.285Z,27.89
2023-05-05T13:52:49.356Z,27.93
2023-05-05T13:53:49.433Z,27.92
2023-05-05T13:54:50.459Z,27.90
2023-05-05T13:55:50.535Z,27.94
2023-05-05T13:56:50.578Z,27.96
2023-05-05T13:57:50.735Z,27.96
2023-05-05T13:58:49.759Z,27.96
2023-05-05T13:59:50.419Z,27.95
2023-05-05T14:00:49.914Z,27.94
2023-05-05T14:01:49.924Z,27.94
2023-05-05T14:02:49.994Z,27.93
2023-05-05T14:03:51.148Z,28.00
2023-05-05T14:04:50.104Z,28.02
2023-05-05T14:05:51.295Z,28.00
2023-05-05T14:06:51.173Z,27.99
2023-05-05T14:07:51.256Z,28.05
2023-05-05T14:08:50.305Z,28.04
2023-05-05T14:09:50.348Z,28.05
2023-05-05T14:10:52.088Z,28.06
2023-05-05T14:11:50.401Z,28.05
2023-05-05T14:12:50.433Z,28.06
2023-05-05T14:13:51.507Z,28.06
2023-05-05T14:14:50.503Z,28.07
2023-05-05T14:15:50.545Z,28.08
2023-05-05T14:16:51.656Z,28.08
2023-05-05T14:17:51.821Z,28.11
2023-05-05T14:18:50.770Z,28.13
2023-05-05T14:19:50.744Z,28.12
2023-05-05T14:20:50.891Z,28.12
2023-05-05T14:21:50.890Z,28.16
2023-05-05T14:22:51.918Z,28.16
2023-05-05T14:23:50.933Z,28.15
2023-05-05T14:24:50.914Z,28.20
2023-05-05T14:25:50.951Z,28.25
2023-05-05T14:26:51.056Z,28.24
2023-05-05T14:27:51.092Z,28.21
2023-05-05T14:28:52.195Z,28.26
2023-05-05T14:29:52.164Z,28.28
2023-05-05T14:30:51.237Z,28.28
2023-05-05T14:31:51.249Z,28.27
2023-05-05T14:32:52.350Z,28.25
2023-05-05T14:33:51.333Z,28.26
2023-05-05T14:34:51.313Z,28.30
2023-05-05T14:35:52.353Z,28.29
2023-05-05T14:36:51.471Z,28.28
2023-05-05T14:37:51.431Z,28.32
2023-05-05T14:38:51.510Z,28.32
2023-05-05T14:39:51.544Z,28.36
2023-05-05T14:40:51.635Z,28.33
2023-05-05T14:41:51.608Z,28.34
2023-05-05T14:42:51.609Z,28.31
2023-05-05T14:43:52.692Z,28.30
2023-05-05T14:44:51.778Z,28.34
2023-05-05T14:45:52.810Z,28.35
2023-05-05T14:46:51.803Z,28.37
2023-05-05T14:47:51.815Z,28.38
2023-05-05T14:48:51.866Z,28.36
2023-05-05T14:49:51.883Z,28.40
2023-05-05T14:50:52.878Z,28.39
2023-05-05T14:51:51.966Z,28.37
2023-05-05T14:52:52.054Z,28.40
2023-05-05T14:53:52.306Z,28.40
2023-05-05T14:54:52.086Z,28.38
2023-05-05T14:55:52.212Z,28.37
2023-05-05T14:56:52.096Z,28.37
2023-05-05T14:57:52.253Z,28.38
2023-05-05T14:58:52.169Z,28.39
2023-05-05T14:59:53.226Z,28.43
2023-05-05T15:00:52.385Z,28.44
2023-05-05T15:01:52.420Z,28.42
2023-05-05T15:02:52.371Z,28.42
2023-05-05T15:03:52.598Z,28.43
2023-05-05T15:04:52.500Z,28.45
2023-05-05T15:05:52.579Z,28.45
2023-05-05T15:06:53.560Z,28.45
2023-05-05T15:07:53.514Z,28.47
2023-05-05T15:08:52.658Z,28.47
2023-05-05T15:09:52.753Z,28.46
2023-05-05T15:10:53.708Z,28.45
2023-05-05T15:11:52.710Z,28.49
2023-05-05T15:12:52.776Z,28.54
2023-05-05T15:13:52.798Z,28.51
2023-05-05T15:14:52.837Z,28.52
2023-05-05T15:15:52.861Z,28.53
2023-05-05T15:16:53.875Z,28.54
2023-05-05T15:17:52.960Z,28.55
2023-05-05T15:18:52.943Z,28.56
2023-05-05T15:19:53.999Z,28.54
2023-05-05T15:20:53.008Z,28.59
2023-05-05T15:21:54.188Z,28.57
2023-05-05T15:22:54.154Z,28.59
2023-05-05T15:23:53.165Z,28.57
2023-05-05T15:24:53.244Z,28.56
2023-05-05T15:25:53.440Z,28.53
2023-05-05T15:26:53.296Z,28.54
2023-05-05T15:27:53.338Z,28.58
2023-05-05T15:28:53.378Z,28.59
2023-05-05T15:29:53.457Z,28.57
